Terminal Aerodrome Forecast
Issued by NWS

Current Version | Previous Version | Text Only | Print | Product List | Glossary On
Versions: 1 2 3 4 5 6 7 8 9 10 11 12 13 14 15 16 17 18
853
FTUS46 KMTR 251721
TAFMRY
TAF
KMRY 251721Z 2518/2618 25010KT P6SM BKN012 OVC020
     FM252000 25012G18KT P6SM SCT025
      TEMPO 2520/2521 BKN025
     FM260200 24006KT P6SM BKN016
     FM260600 23006KT P6SM OVC009=

USA.gov is the U.S. government's official web portal to all federal, state and local government web resources and services.